Terminal Aerodrome Forecast
Issued by NWS Northern Indiana

Home | Current Version | Previous Version | Graphics & Text | Print | Product List | Glossary On
Versions: 1 2 3 4 5 6 7 8 9 10 11 12 13 14 15 16 17 18 19
964
FTUS43 KIWX 250306 AAB
TAFFWA
TAF AMD
KFWA 250306Z 2503/2524 28015G23KT P6SM BKN015 OVC060
     FM250400 26014G24KT P6SM OVC025
     FM251600 27019G28KT P6SM OVC035=

USA.gov is the U.S. government's official web portal to all federal, state and local government web resources and services.